Ingleside, Canada
Current Conditions -  °F | °C
As of 6:53 PM on Friday 31 Oct 2014 (Local Time) from KMSS Reporting Station
Overcast Overcast  
Wind Chill:   Ceiling: 6500
Heat Index:   Visibility: 10mi
Dew Point: -3°   Wind: 9mph
Humidity: 55%   Direction: 30°NNE
Pressure: 30.07"   Gusts: NA
Location:  45°N, 75°W
Report Text: KMSS 312253Z AUTO 03008KT 10SM OVC065 05/M03 A3007 RMK AO2 SLP186 T00501033
Loading
Personal Weather Stations






























Interactive Weather Map
Tropical Storm Tracking
New forecast layout! Learn more

10-Day Weather Forecast

Advertisements
Track Severe Weather on mobile